createdAt,value
2022-09-26T00:01:17.002Z,94.66
2022-09-26T00:03:45.948Z,94.90
2022-09-26T00:06:13.323Z,94.88
2022-09-26T00:08:40.228Z,94.79
2022-09-26T00:11:09.335Z,94.90
2022-09-26T00:13:38.139Z,95.02
2022-09-26T00:16:05.634Z,95.14
2022-09-26T00:18:32.683Z,95.08
2022-09-26T00:21:04.618Z,95.09
2022-09-26T00:23:31.285Z,94.84
2022-09-26T00:25:58.551Z,95.02
2022-09-26T00:28:25.522Z,95.24
2022-09-26T00:30:52.207Z,95.18
2022-09-26T00:33:18.721Z,95.54
2022-09-26T00:35:52.891Z,95.15
2022-09-26T00:38:20.057Z,94.83
2022-09-26T00:40:47.973Z,95.18
2022-09-26T00:43:42.371Z,94.89
2022-09-26T00:46:27.728Z,94.84
2022-09-26T00:49:04.937Z,94.92
2022-09-26T00:51:33.861Z,95.26
2022-09-26T00:54:00.668Z,95.10
2022-09-26T00:56:31.897Z,94.67
2022-09-26T00:59:16.944Z,94.67
2022-09-26T01:01:43.435Z,95.18
2022-09-26T01:04:12.554Z,94.80
2022-09-26T01:06:39.510Z,94.92
2022-09-26T01:09:09.816Z,94.92
2022-09-26T01:11:37.614Z,94.90
2022-09-26T01:14:06.371Z,95.00
2022-09-26T01:16:34.151Z,94.75
2022-09-26T01:19:04.225Z,94.78
2022-09-26T01:21:57.161Z,94.41
2022-09-26T01:24:48.149Z,94.84
2022-09-26T01:27:45.382Z,94.83
2022-09-26T01:30:21.477Z,94.38
2022-09-26T01:33:13.034Z,94.47
2022-09-26T01:36:02.984Z,93.89
2022-09-26T01:38:52.532Z,93.90
2022-09-26T01:41:34.000Z,94.26
2022-09-26T01:44:16.325Z,93.99
2022-09-26T01:46:52.139Z,94.09
2022-09-26T01:49:34.103Z,93.97
2022-09-26T01:52:10.449Z,94.61
2022-09-26T01:54:42.869Z,94.33
2022-09-26T01:57:15.903Z,94.57
2022-09-26T01:59:49.896Z,94.36
2022-09-26T02:02:21.436Z,94.75
2022-09-26T02:04:55.154Z,94.38
2022-09-26T02:07:31.665Z,94.39
2022-09-26T02:10:06.037Z,94.86
2022-09-26T02:12:39.468Z,95.27
2022-09-26T02:15:12.909Z,95.10
2022-09-26T02:17:43.859Z,95.24
2022-09-26T02:20:16.254Z,95.09
2022-09-26T02:22:44.380Z,95.58
2022-09-26T02:25:14.858Z,95.32
2022-09-26T02:27:41.531Z,95.50
2022-09-26T02:30:10.182Z,95.16
2022-09-26T02:32:37.219Z,95.22
2022-09-26T02:35:37.653Z,95.30
2022-09-26T02:38:05.555Z,95.40
2022-09-26T02:40:51.309Z,95.27
2022-09-26T02:43:54.065Z,95.09
2022-09-26T02:46:28.472Z,95.18
2022-09-26T02:49:33.532Z,95.40
2022-09-26T02:52:16.028Z,95.47
2022-09-26T02:54:58.583Z,95.51
2022-09-26T02:57:47.117Z,95.18
2022-09-26T03:00:20.969Z,94.98
2022-09-26T03:02:55.238Z,95.14
2022-09-26T03:05:26.223Z,95.08
2022-09-26T03:08:02.474Z,95.19
2022-09-26T03:10:31.772Z,94.71
2022-09-26T03:13:04.242Z,94.93
2022-09-26T03:15:33.067Z,95.29
2022-09-26T03:18:01.799Z,94.82
2022-09-26T03:20:28.917Z,94.54
2022-09-26T03:22:55.912Z,94.82
2022-09-26T03:25:25.818Z,94.60
2022-09-26T03:28:02.237Z,94.34
2022-09-26T03:30:32.194Z,94.24
2022-09-26T03:33:17.348Z,94.07
2022-09-26T03:35:43.769Z,93.79
2022-09-26T03:38:14.241Z,93.24
2022-09-26T03:40:46.525Z,93.38
2022-09-26T03:43:47.848Z,93.34
2022-09-26T03:46:15.810Z,93.44
2022-09-26T03:48:43.116Z,93.05
2022-09-26T03:51:13.115Z,92.75
2022-09-26T03:53:42.376Z,92.72
2022-09-26T03:56:14.889Z,92.38
2022-09-26T03:58:42.427Z,92.36
2022-09-26T04:01:11.936Z,92.56
2022-09-26T04:03:42.370Z,92.14
2022-09-26T04:06:11.475Z,92.07
2022-09-26T04:08:41.668Z,92.15
2022-09-26T04:11:12.342Z,92.06
2022-09-26T04:13:51.339Z,91.97
2022-09-26T04:16:22.594Z,92.24
2022-09-26T04:18:59.144Z,92.24
2022-09-26T04:21:27.151Z,92.51
2022-09-26T04:23:54.536Z,92.51
2022-09-26T04:26:24.217Z,92.39
2022-09-26T04:28:54.749Z,92.58
2022-09-26T04:31:24.217Z,92.54
2022-09-26T04:33:57.066Z,92.79
2022-09-26T04:36:23.767Z,92.57
2022-09-26T04:38:50.172Z,92.92
2022-09-26T04:41:20.017Z,93.22
2022-09-26T04:43:48.610Z,92.75
2022-09-26T04:46:24.557Z,92.86
2022-09-26T04:48:56.332Z,92.91
2022-09-26T04:51:25.907Z,92.84
2022-09-26T04:53:52.674Z,92.75
2022-09-26T04:56:26.239Z,92.55
2022-09-26T04:58:56.109Z,92.63
2022-09-26T05:01:24.569Z,92.38
2022-09-26T05:04:08.066Z,92.31
2022-09-26T05:06:34.435Z,92.08
2022-09-26T05:09:04.120Z,92.18
2022-09-26T05:11:40.392Z,92.34
2022-09-26T05:14:10.657Z,92.56
2022-09-26T05:16:38.865Z,92.52
2022-09-26T05:19:06.341Z,92.46
2022-09-26T05:21:36.065Z,92.39
2022-09-26T05:24:21.058Z,92.44
2022-09-26T05:26:50.715Z,92.29
2022-09-26T05:29:20.351Z,92.52
2022-09-26T05:31:54.553Z,92.48
2022-09-26T05:34:24.958Z,92.40
2022-09-26T05:36:53.161Z,92.21
2022-09-26T05:39:42.301Z,92.37
2022-09-26T05:42:09.972Z,92.48
2022-09-26T05:44:37.654Z,92.17
2022-09-26T05:47:04.506Z,92.47
2022-09-26T05:49:32.880Z,92.06
2022-09-26T05:51:59.596Z,92.28
2022-09-26T05:54:26.410Z,92.20
2022-09-26T05:56:54.031Z,92.07
2022-09-26T05:59:38.675Z,91.44
2022-09-26T06:02:25.364Z,91.79
2022-09-26T06:05:10.428Z,91.79
2022-09-26T06:07:36.774Z,91.94
2022-09-26T06:10:07.435Z,91.90
2022-09-26T06:12:40.830Z,91.75
2022-09-26T06:15:09.425Z,91.68
2022-09-26T06:17:36.342Z,91.77
2022-09-26T06:20:04.391Z,91.63
2022-09-26T06:22:39.228Z,91.45
2022-09-26T06:25:06.279Z,91.47
2022-09-26T06:27:38.717Z,91.45
2022-09-26T06:30:12.911Z,91.11
2022-09-26T06:32:40.253Z,91.04
2022-09-26T06:35:20.652Z,91.08
2022-09-26T06:38:01.256Z,91.35
2022-09-26T06:40:29.087Z,91.20
2022-09-26T06:42:55.921Z,90.95
2022-09-26T06:45:27.788Z,90.90
2022-09-26T06:48:08.395Z,90.65
2022-09-26T06:50:58.475Z,90.68
2022-09-26T06:53:24.925Z,90.28
2022-09-26T06:55:51.359Z,90.53
2022-09-26T06:58:17.853Z,90.56
2022-09-26T07:00:53.609Z,89.71
2022-09-26T07:03:42.920Z,89.28
2022-09-26T07:06:30.961Z,89.26
2022-09-26T07:09:02.991Z,89.38
2022-09-26T07:12:13.973Z,88.68
2022-09-26T07:14:42.017Z,88.74
2022-09-26T07:17:21.476Z,87.97
2022-09-26T07:20:10.263Z,87.69
2022-09-26T07:22:55.675Z,87.11
2022-09-26T07:25:22.888Z,86.74
2022-09-26T07:27:51.536Z,86.38
2022-09-26T07:30:21.316Z,85.93
2022-09-26T07:33:03.473Z,85.78
2022-09-26T07:35:36.482Z,85.46
2022-09-26T07:38:05.051Z,85.33
2022-09-26T07:40:32.314Z,85.65
2022-09-26T07:43:19.734Z,85.06
2022-09-26T07:46:09.241Z,85.05
2022-09-26T07:48:54.903Z,85.76
2022-09-26T07:51:40.088Z,85.43
2022-09-26T07:54:10.674Z,85.25
2022-09-26T07:56:55.734Z,85.15
2022-09-26T07:59:36.632Z,84.97
2022-09-26T08:02:25.760Z,84.69
2022-09-26T08:04:58.876Z,84.20
2022-09-26T08:07:27.766Z,84.36
2022-09-26T08:10:02.910Z,83.58
2022-09-26T08:12:48.373Z,83.58
2022-09-26T08:15:30.447Z,83.90
2022-09-26T08:18:05.266Z,83.10
2022-09-26T08:20:32.465Z,83.53
2022-09-26T08:23:00.137Z,83.20
2022-09-26T08:25:26.742Z,82.93
2022-09-26T08:28:01.165Z,83.21
2022-09-26T08:30:31.185Z,82.68
2022-09-26T08:33:01.962Z,82.75
2022-09-26T08:35:35.583Z,82.78
2022-09-26T08:38:15.461Z,81.97
2022-09-26T08:40:51.429Z,81.72
2022-09-26T08:43:49.207Z,81.28
2022-09-26T08:46:59.202Z,81.78
2022-09-26T08:49:55.767Z,80.88
2022-09-26T08:52:41.237Z,80.38
2022-09-26T08:55:15.702Z,79.49
2022-09-26T08:57:45.050Z,78.70
2022-09-26T09:00:19.315Z,78.18
2022-09-26T09:03:03.055Z,76.61
2022-09-26T09:05:33.849Z,75.81
2022-09-26T09:08:07.820Z,75.59
2022-09-26T09:10:47.197Z,75.24
2022-09-26T09:13:24.479Z,74.73
2022-09-26T09:16:20.579Z,72.78
2022-09-26T09:19:48.609Z,71.83
2022-09-26T09:23:13.619Z,69.49
2022-09-26T09:25:55.314Z,68.50
2022-09-26T09:28:53.140Z,67.86
2022-09-26T09:31:21.463Z,68.06
2022-09-26T09:34:02.008Z,68.08
2022-09-26T09:36:54.115Z,68.34
2022-09-26T09:39:35.168Z,67.57
2022-09-26T09:42:19.997Z,67.28
2022-09-26T09:44:57.598Z,66.54
2022-09-26T09:47:27.547Z,65.42
2022-09-26T09:49:56.689Z,65.46
2022-09-26T09:52:52.964Z,65.19
2022-09-26T09:55:42.444Z,64.83
2022-09-26T09:58:43.690Z,64.82
2022-09-26T10:01:18.859Z,64.08
2022-09-26T10:04:01.228Z,64.35
2022-09-26T10:06:45.393Z,64.38
2022-09-26T10:09:38.845Z,62.67
2022-09-26T10:12:28.737Z,62.68
2022-09-26T10:15:26.215Z,63.09
2022-09-26T10:18:24.708Z,63.77
2022-09-26T10:21:16.307Z,63.41
2022-09-26T10:23:46.756Z,62.30
2022-09-26T10:26:34.817Z,61.92
2022-09-26T10:29:25.024Z,61.74
2022-09-26T10:31:57.217Z,60.86
2022-09-26T10:34:27.865Z,61.13
2022-09-26T10:36:55.901Z,60.35
2022-09-26T10:39:49.232Z,60.16
2022-09-26T10:42:19.999Z,60.06
2022-09-26T10:44:50.420Z,59.84
2022-09-26T10:47:21.948Z,58.54
2022-09-26T10:50:29.359Z,57.48
2022-09-26T10:53:13.996Z,55.93
2022-09-26T10:55:46.095Z,54.97
2022-09-26T10:58:24.011Z,53.88
2022-09-26T11:00:54.230Z,52.60
2022-09-26T11:03:38.371Z,52.16
2022-09-26T11:06:35.501Z,51.60
2022-09-26T11:09:27.323Z,52.48
2022-09-26T11:12:29.988Z,53.11
2022-09-26T11:15:13.689Z,51.64
2022-09-26T11:17:47.219Z,51.84
2022-09-26T11:20:22.117Z,50.25
2022-09-26T11:22:58.306Z,49.08
2022-09-26T11:25:29.192Z,49.09
2022-09-26T11:28:07.004Z,49.53
2022-09-26T11:30:54.009Z,50.69
2022-09-26T11:33:24.618Z,51.37
2022-09-26T11:36:27.093Z,51.84
2022-09-26T11:38:57.783Z,51.67
2022-09-26T11:41:37.051Z,51.96
2022-09-26T11:44:42.051Z,50.96
2022-09-26T11:47:54.188Z,50.22
2022-09-26T11:50:56.164Z,48.97
2022-09-26T11:53:45.775Z,48.60
2022-09-26T11:56:33.945Z,47.89
2022-09-26T11:59:20.520Z,47.18
2022-09-26T12:01:55.731Z,47.50
2022-09-26T12:04:45.615Z,48.40
2022-09-26T12:07:22.288Z,48.89
2022-09-26T12:10:25.188Z,48.94
2022-09-26T12:13:17.784Z,49.66
2022-09-26T12:16:02.775Z,49.95
2022-09-26T12:18:40.114Z,49.09
2022-09-26T12:21:31.643Z,48.31
2022-09-26T12:24:00.781Z,47.14
2022-09-26T12:26:39.702Z,47.05
2022-09-26T12:29:39.812Z,45.52
2022-09-26T12:32:41.406Z,44.53
2022-09-26T12:35:32.197Z,43.95
2022-09-26T12:38:15.657Z,43.25
2022-09-26T12:41:01.986Z,41.65
2022-09-26T12:43:50.982Z,41.51
2022-09-26T12:46:41.482Z,42.00
2022-09-26T12:49:13.915Z,42.46
2022-09-26T12:51:42.821Z,43.37
2022-09-26T12:54:15.463Z,43.98
2022-09-26T12:56:51.704Z,44.15
2022-09-26T12:59:34.307Z,44.59
2022-09-26T13:02:41.969Z,45.58
2022-09-26T13:05:27.888Z,45.74
2022-09-26T13:08:18.364Z,46.12
2022-09-26T13:11:07.818Z,45.42
2022-09-26T13:13:49.181Z,45.79
2022-09-26T13:16:25.276Z,46.27
2022-09-26T13:18:56.455Z,46.68
2022-09-26T13:21:38.419Z,47.05
2022-09-26T13:24:13.884Z,47.29
2022-09-26T13:26:46.827Z,46.97
2022-09-26T13:29:27.001Z,46.26
2022-09-26T13:32:06.362Z,44.83
2022-09-26T13:34:45.249Z,43.12
2022-09-26T13:37:32.337Z,43.07
2022-09-26T13:40:09.656Z,41.87
2022-09-26T13:42:47.969Z,42.88
2022-09-26T13:45:36.168Z,43.98
2022-09-26T13:48:16.644Z,44.86
2022-09-26T13:50:55.876Z,45.42
2022-09-26T13:53:38.093Z,46.30
2022-09-26T13:56:40.336Z,46.43
2022-09-26T13:59:12.664Z,46.39
2022-09-26T14:01:59.735Z,46.39
2022-09-26T14:04:34.497Z,47.31
2022-09-26T14:07:28.999Z,47.71
2022-09-26T14:10:03.625Z,48.35
2022-09-26T14:12:52.557Z,48.87
2022-09-26T14:15:28.267Z,48.35
2022-09-26T14:18:07.809Z,47.60
2022-09-26T14:20:50.685Z,46.91
2022-09-26T14:23:39.026Z,46.53
2022-09-26T14:26:28.174Z,47.82
2022-09-26T14:28:56.481Z,48.56
2022-09-26T14:31:26.154Z,48.71
2022-09-26T14:34:15.433Z,50.46
2022-09-26T14:36:43.847Z,51.93
2022-09-26T14:39:34.461Z,53.14
2022-09-26T14:42:08.986Z,53.77
2022-09-26T14:44:37.391Z,54.37
2022-09-26T14:47:11.260Z,55.52
2022-09-26T14:49:37.713Z,54.60
2022-09-26T14:52:08.941Z,55.36
2022-09-26T14:54:40.245Z,55.57
2022-09-26T14:57:20.877Z,55.83
2022-09-26T14:59:47.963Z,56.18
2022-09-26T15:02:14.401Z,56.38
2022-09-26T15:04:43.373Z,55.94
2022-09-26T15:07:24.908Z,55.05
2022-09-26T15:09:59.697Z,52.27
2022-09-26T15:12:28.561Z,50.68
2022-09-26T15:15:15.318Z,48.63
2022-09-26T15:17:48.612Z,48.35
2022-09-26T15:20:18.595Z,49.23
2022-09-26T15:22:47.000Z,50.38
2022-09-26T15:25:22.801Z,51.30
2022-09-26T15:27:56.327Z,51.42
2022-09-26T15:30:27.181Z,52.26
2022-09-26T15:32:57.909Z,53.14
2022-09-26T15:35:26.690Z,53.84
2022-09-26T15:38:00.974Z,54.13
2022-09-26T15:40:30.146Z,54.07
2022-09-26T15:43:15.894Z,54.66
2022-09-26T15:45:59.492Z,55.48
2022-09-26T15:48:32.464Z,55.67
2022-09-26T15:51:14.822Z,56.34
2022-09-26T15:53:49.224Z,56.48
2022-09-26T15:56:23.857Z,56.85
2022-09-26T15:59:05.919Z,57.19
2022-09-26T16:01:40.411Z,57.47
2022-09-26T16:04:21.800Z,58.25
2022-09-26T16:06:52.840Z,58.01
2022-09-26T16:09:34.698Z,58.96
2022-09-26T16:12:23.332Z,59.26
2022-09-26T16:14:58.658Z,60.01
2022-09-26T16:17:40.272Z,60.69
2022-09-26T16:20:09.647Z,61.16
2022-09-26T16:22:46.385Z,62.34
2022-09-26T16:25:15.467Z,63.17
2022-09-26T16:27:42.416Z,63.79
2022-09-26T16:30:20.984Z,64.72
2022-09-26T16:32:47.543Z,64.95
2022-09-26T16:35:23.851Z,65.45
2022-09-26T16:37:59.447Z,65.89
2022-09-26T16:40:30.605Z,66.74
2022-09-26T16:43:18.860Z,67.12
2022-09-26T16:45:46.929Z,67.28
2022-09-26T16:48:36.402Z,66.70
2022-09-26T16:51:18.373Z,66.91
2022-09-26T16:53:46.558Z,66.50
2022-09-26T16:56:15.728Z,66.58
2022-09-26T16:58:49.013Z,66.29
2022-09-26T17:01:34.650Z,66.05
2022-09-26T17:04:01.298Z,66.87
2022-09-26T17:06:27.760Z,67.82
2022-09-26T17:08:56.450Z,67.65
2022-09-26T17:11:23.721Z,68.47
2022-09-26T17:13:50.261Z,68.18
2022-09-26T17:16:16.752Z,68.86
2022-09-26T17:18:44.703Z,69.05
2022-09-26T17:21:13.964Z,69.01
2022-09-26T17:23:41.774Z,68.97
2022-09-26T17:26:23.604Z,69.27
2022-09-26T17:28:53.264Z,69.55
2022-09-26T17:31:20.344Z,69.47
2022-09-26T17:33:52.506Z,69.61
2022-09-26T17:36:24.826Z,69.91
2022-09-26T17:38:51.643Z,70.43
2022-09-26T17:41:18.076Z,70.29
2022-09-26T17:43:45.092Z,70.70
2022-09-26T17:46:15.403Z,70.73
2022-09-26T17:48:43.162Z,70.26
2022-09-26T17:51:13.773Z,70.50
2022-09-26T17:53:50.200Z,70.64
2022-09-26T17:56:18.804Z,71.15
2022-09-26T17:58:47.149Z,71.44
2022-09-26T18:01:33.377Z,71.39
2022-09-26T18:04:06.141Z,71.48
2022-09-26T18:06:33.114Z,72.21
2022-09-26T18:09:05.528Z,72.30
2022-09-26T18:11:34.282Z,73.12
2022-09-26T18:14:03.278Z,73.71
2022-09-26T18:16:29.621Z,73.47
2022-09-26T18:18:56.080Z,74.18
2022-09-26T18:21:24.125Z,74.15
2022-09-26T18:23:55.500Z,74.34
2022-09-26T18:26:21.954Z,74.06
2022-09-26T18:28:48.365Z,74.54
2022-09-26T18:31:14.986Z,74.75
2022-09-26T18:33:41.341Z,75.47
2022-09-26T18:36:12.064Z,75.43
2022-09-26T18:38:38.413Z,75.21
2022-09-26T18:41:06.925Z,75.49
2022-09-26T18:43:40.495Z,75.49
2022-09-26T18:46:15.736Z,75.87
2022-09-26T18:48:42.840Z,76.10
2022-09-26T18:51:12.793Z,76.12
2022-09-26T18:53:40.321Z,76.60
2022-09-26T18:56:26.765Z,76.65
2022-09-26T18:58:53.595Z,76.60
2022-09-26T19:01:44.151Z,77.15
2022-09-26T19:04:17.625Z,77.23
2022-09-26T19:06:47.062Z,77.34
2022-09-26T19:09:15.093Z,77.65
2022-09-26T19:11:42.022Z,77.92
2022-09-26T19:14:25.762Z,78.00
2022-09-26T19:16:52.938Z,78.33
2022-09-26T19:19:20.095Z,78.84
2022-09-26T19:21:56.820Z,79.03
2022-09-26T19:24:23.208Z,79.46
2022-09-26T19:27:06.116Z,79.86
2022-09-26T19:29:44.927Z,79.91
2022-09-26T19:32:20.361Z,80.29
2022-09-26T19:34:51.610Z,80.53
2022-09-26T19:37:18.200Z,80.77
2022-09-26T19:39:44.690Z,80.41
2022-09-26T19:42:11.501Z,81.39
2022-09-26T19:44:37.876Z,80.79
2022-09-26T19:47:04.672Z,81.11
2022-09-26T19:49:32.785Z,81.43
2022-09-26T19:52:02.071Z,80.97
2022-09-26T19:54:28.496Z,81.44
2022-09-26T19:56:54.864Z,81.43
2022-09-26T19:59:25.325Z,81.44
2022-09-26T20:01:53.709Z,81.66
2022-09-26T20:04:20.483Z,81.26
2022-09-26T20:06:47.204Z,81.74
2022-09-26T20:09:18.954Z,81.49
2022-09-26T20:11:45.469Z,81.67
2022-09-26T20:14:24.408Z,81.47
2022-09-26T20:16:57.361Z,81.58
2022-09-26T20:19:34.464Z,81.72
2022-09-26T20:22:03.122Z,81.90
2022-09-26T20:24:35.150Z,82.03
2022-09-26T20:27:03.517Z,82.50
2022-09-26T20:29:29.986Z,82.75
2022-09-26T20:31:56.483Z,82.97
2022-09-26T20:34:22.831Z,83.15
2022-09-26T20:36:51.500Z,82.71
2022-09-26T20:39:23.181Z,83.32
2022-09-26T20:41:51.239Z,83.04
2022-09-26T20:44:27.241Z,83.13
2022-09-26T20:46:58.693Z,83.04
2022-09-26T20:49:34.503Z,83.48
2022-09-26T20:52:02.377Z,83.02
2022-09-26T20:54:31.031Z,83.38
2022-09-26T20:56:58.704Z,82.36
2022-09-26T20:59:26.070Z,82.84
2022-09-26T21:01:54.350Z,82.79
2022-09-26T21:04:29.489Z,82.74
2022-09-26T21:06:56.156Z,82.66
2022-09-26T21:09:22.560Z,82.72
2022-09-26T21:11:48.992Z,83.22
2022-09-26T21:14:16.604Z,83.01
2022-09-26T21:16:46.547Z,82.99
2022-09-26T21:19:21.026Z,82.84
2022-09-26T21:21:51.711Z,83.14
2022-09-26T21:24:41.201Z,83.14
2022-09-26T21:27:11.440Z,83.31
2022-09-26T21:29:38.025Z,83.20
2022-09-26T21:32:08.213Z,83.17
2022-09-26T21:34:36.658Z,83.26
2022-09-26T21:37:03.754Z,83.27
2022-09-26T21:39:30.578Z,83.24
2022-09-26T21:42:01.577Z,83.55
2022-09-26T21:44:37.495Z,83.52
2022-09-26T21:47:04.162Z,83.56
2022-09-26T21:49:30.907Z,83.88
2022-09-26T21:52:17.269Z,84.15
2022-09-26T21:54:45.054Z,83.94
2022-09-26T21:57:17.297Z,84.58
2022-09-26T21:59:44.228Z,84.14
2022-09-26T22:02:10.669Z,84.10
2022-09-26T22:04:37.070Z,84.23
2022-09-26T22:07:03.433Z,84.66
2022-09-26T22:09:30.276Z,84.34
2022-09-26T22:11:56.702Z,84.19
2022-09-26T22:14:23.058Z,84.72
2022-09-26T22:16:49.423Z,84.77
2022-09-26T22:19:16.515Z,84.33
2022-09-26T22:21:43.083Z,84.95
2022-09-26T22:24:10.307Z,84.83
2022-09-26T22:26:36.716Z,84.72
2022-09-26T22:29:03.209Z,84.72
2022-09-26T22:31:29.646Z,85.35
2022-09-26T22:33:57.362Z,85.15
2022-09-26T22:36:24.301Z,85.29
2022-09-26T22:38:50.697Z,84.95
2022-09-26T22:41:17.088Z,85.20
2022-09-26T22:43:43.426Z,84.64
2022-09-26T22:46:12.399Z,84.84
2022-09-26T22:48:45.794Z,84.33
2022-09-26T22:51:13.777Z,84.42
2022-09-26T22:53:41.618Z,84.27
2022-09-26T22:56:11.296Z,84.00
2022-09-26T22:58:40.562Z,84.22
2022-09-26T23:01:12.593Z,84.13
2022-09-26T23:03:40.065Z,84.17
2022-09-26T23:06:07.933Z,84.13
2022-09-26T23:08:34.981Z,84.55
2022-09-26T23:11:02.652Z,84.61
2022-09-26T23:13:31.465Z,84.59
2022-09-26T23:16:26.998Z,84.45
2022-09-26T23:18:54.211Z,84.86
2022-09-26T23:21:22.982Z,84.97
2022-09-26T23:23:52.525Z,85.07
2022-09-26T23:26:22.124Z,85.15
2022-09-26T23:28:50.063Z,85.20
2022-09-26T23:31:16.946Z,85.06
2022-09-26T23:33:43.649Z,85.16
2022-09-26T23:36:10.954Z,85.02
2022-09-26T23:38:39.156Z,84.92
2022-09-26T23:41:10.199Z,85.19
2022-09-26T23:43:37.514Z,84.98
2022-09-26T23:46:04.459Z,84.57
2022-09-26T23:48:30.957Z,84.84
2022-09-26T23:50:57.598Z,84.74
2022-09-26T23:53:24.062Z,84.57
2022-09-26T23:55:50.560Z,83.82
2022-09-26T23:58:17.053Z,83.84
